sensor_id;sensor_type;location;lat;lon;timestamp;temperature;humidity
790;DHT22;378;48.844;9.156;2022-11-21T00:01:18;4.70;99.90
790;DHT22;378;48.844;9.156;2022-11-21T00:03:45;4.80;99.90
790;DHT22;378;48.844;9.156;2022-11-21T00:06:12;4.80;99.90
790;DHT22;378;48.844;9.156;2022-11-21T00:08:41;4.90;99.90
790;DHT22;378;48.844;9.156;2022-11-21T00:11:08;5.00;99.90
790;DHT22;378;48.844;9.156;2022-11-21T00:13:35;5.00;99.90
790;DHT22;378;48.844;9.156;2022-11-21T00:16:02;5.00;99.90
790;DHT22;378;48.844;9.156;2022-11-21T00:18:29;5.00;99.90
790;DHT22;378;48.844;9.156;2022-11-21T00:20:56;4.90;99.90
790;DHT22;378;48.844;9.156;2022-11-21T00:23:23;4.90;99.90
790;DHT22;378;48.844;9.156;2022-11-21T00:25:54;4.90;99.90
790;DHT22;378;48.844;9.156;2022-11-21T00:28:20;4.90;99.90
790;DHT22;378;48.844;9.156;2022-11-21T00:30:47;4.80;99.90
790;DHT22;378;48.844;9.156;2022-11-21T00:33:14;4.80;99.90
790;DHT22;378;48.844;9.156;2022-11-21T00:35:41;4.70;99.90
790;DHT22;378;48.844;9.156;2022-11-21T00:38:08;4.70;99.90
790;DHT22;378;48.844;9.156;2022-11-21T00:40:34;4.70;99.90
790;DHT22;378;48.844;9.156;2022-11-21T00:43:03;4.70;99.90
790;DHT22;378;48.844;9.156;2022-11-21T00:45:29;4.60;99.90
790;DHT22;378;48.844;9.156;2022-11-21T00:47:56;4.60;99.90
790;DHT22;378;48.844;9.156;2022-11-21T00:50:23;4.50;99.90
790;DHT22;378;48.844;9.156;2022-11-21T00:52:53;4.50;99.90
790;DHT22;378;48.844;9.156;2022-11-21T00:55:20;4.40;99.90
790;DHT22;378;48.844;9.156;2022-11-21T00:57:47;4.30;99.90
790;DHT22;378;48.844;9.156;2022-11-21T01:00:17;4.30;99.90
790;DHT22;378;48.844;9.156;2022-11-21T01:02:44;4.30;99.90
790;DHT22;378;48.844;9.156;2022-11-21T01:05:10;4.30;99.90
790;DHT22;378;48.844;9.156;2022-11-21T01:07:37;4.30;99.90
790;DHT22;378;48.844;9.156;2022-11-21T01:10:05;4.30;99.90
790;DHT22;378;48.844;9.156;2022-11-21T01:12:32;4.30;99.90
790;DHT22;378;48.844;9.156;2022-11-21T01:14:59;4.30;99.90
790;DHT22;378;48.844;9.156;2022-11-21T01:17:27;4.30;99.90
790;DHT22;378;48.844;9.156;2022-11-21T01:19:54;4.30;99.90
790;DHT22;378;48.844;9.156;2022-11-21T01:22:20;4.40;99.90
790;DHT22;378;48.844;9.156;2022-11-21T01:24:47;4.40;99.90
790;DHT22;378;48.844;9.156;2022-11-21T01:27:14;4.50;99.90
790;DHT22;378;48.844;9.156;2022-11-21T01:29:41;4.50;99.90
790;DHT22;378;48.844;9.156;2022-11-21T01:32:08;4.50;99.90
790;DHT22;378;48.844;9.156;2022-11-21T01:34:36;4.50;99.90
790;DHT22;378;48.844;9.156;2022-11-21T01:37:03;4.40;99.90
790;DHT22;378;48.844;9.156;2022-11-21T01:39:29;4.40;99.90
790;DHT22;378;48.844;9.156;2022-11-21T01:41:56;4.40;99.90
790;DHT22;378;48.844;9.156;2022-11-21T01:44:24;4.30;99.90
790;DHT22;378;48.844;9.156;2022-11-21T01:46:52;4.30;99.90
790;DHT22;378;48.844;9.156;2022-11-21T01:49:21;4.30;99.90
790;DHT22;378;48.844;9.156;2022-11-21T01:51:54;4.20;99.90
790;DHT22;378;48.844;9.156;2022-11-21T01:54:25;4.20;99.90
790;DHT22;378;48.844;9.156;2022-11-21T01:56:58;4.20;99.90
790;DHT22;378;48.844;9.156;2022-11-21T01:59:29;4.20;99.90
790;DHT22;378;48.844;9.156;2022-11-21T02:01:58;4.20;99.90
790;DHT22;378;48.844;9.156;2022-11-21T02:04:29;4.20;99.90
790;DHT22;378;48.844;9.156;2022-11-21T02:06:58;4.20;99.90
790;DHT22;378;48.844;9.156;2022-11-21T02:09:25;4.20;99.90
790;DHT22;378;48.844;9.156;2022-11-21T02:11:55;4.20;99.90
790;DHT22;378;48.844;9.156;2022-11-21T02:14:23;4.20;99.90
790;DHT22;378;48.844;9.156;2022-11-21T02:16:54;4.10;99.90
790;DHT22;378;48.844;9.156;2022-11-21T02:19:26;4.20;99.90
790;DHT22;378;48.844;9.156;2022-11-21T02:22:03;4.20;99.90
790;DHT22;378;48.844;9.156;2022-11-21T02:24:38;4.20;99.90
790;DHT22;378;48.844;9.156;2022-11-21T02:27:08;4.20;99.90
790;DHT22;378;48.844;9.156;2022-11-21T02:29:35;4.10;99.90
790;DHT22;378;48.844;9.156;2022-11-21T02:32:03;4.20;99.90
790;DHT22;378;48.844;9.156;2022-11-21T02:34:30;4.20;99.90
790;DHT22;378;48.844;9.156;2022-11-21T02:36:59;4.10;99.90
790;DHT22;378;48.844;9.156;2022-11-21T02:39:31;4.20;99.90
790;DHT22;378;48.844;9.156;2022-11-21T02:42:04;4.10;99.90
790;DHT22;378;48.844;9.156;2022-11-21T02:44:37;4.10;99.90
790;DHT22;378;48.844;9.156;2022-11-21T02:47:05;4.10;99.90
790;DHT22;378;48.844;9.156;2022-11-21T02:49:39;4.10;99.90
790;DHT22;378;48.844;9.156;2022-11-21T02:52:08;4.00;99.90
790;DHT22;378;48.844;9.156;2022-11-21T02:54:35;4.00;99.90
790;DHT22;378;48.844;9.156;2022-11-21T02:57:02;4.00;99.90
790;DHT22;378;48.844;9.156;2022-11-21T02:59:28;3.90;99.90
790;DHT22;378;48.844;9.156;2022-11-21T03:01:56;3.90;99.90
790;DHT22;378;48.844;9.156;2022-11-21T03:04:25;3.90;99.90
790;DHT22;378;48.844;9.156;2022-11-21T03:06:53;3.90;99.90
790;DHT22;378;48.844;9.156;2022-11-21T03:09:20;3.80;99.90
790;DHT22;378;48.844;9.156;2022-11-21T03:11:46;3.80;99.90
790;DHT22;378;48.844;9.156;2022-11-21T03:14:13;3.80;99.90
790;DHT22;378;48.844;9.156;2022-11-21T03:16:40;3.70;99.90
790;DHT22;378;48.844;9.156;2022-11-21T03:19:08;3.70;99.90
790;DHT22;378;48.844;9.156;2022-11-21T03:21:35;3.70;99.90
790;DHT22;378;48.844;9.156;2022-11-21T03:24:02;3.70;99.90
790;DHT22;378;48.844;9.156;2022-11-21T03:26:29;3.70;99.90
790;DHT22;378;48.844;9.156;2022-11-21T03:28:56;3.60;99.90
790;DHT22;378;48.844;9.156;2022-11-21T03:31:22;3.70;99.90
790;DHT22;378;48.844;9.156;2022-11-21T03:33:49;3.70;99.90
790;DHT22;378;48.844;9.156;2022-11-21T03:36:17;3.80;99.90
790;DHT22;378;48.844;9.156;2022-11-21T03:38:44;3.80;99.90
790;DHT22;378;48.844;9.156;2022-11-21T03:41:11;3.80;99.90
790;DHT22;378;48.844;9.156;2022-11-21T03:43:51;3.90;99.90
790;DHT22;378;48.844;9.156;2022-11-21T03:46:18;4.00;99.90
790;DHT22;378;48.844;9.156;2022-11-21T03:48:45;4.10;99.90
790;DHT22;378;48.844;9.156;2022-11-21T03:51:12;4.10;99.90
790;DHT22;378;48.844;9.156;2022-11-21T03:53:40;4.10;99.90
790;DHT22;378;48.844;9.156;2022-11-21T03:56:07;4.10;99.90
790;DHT22;378;48.844;9.156;2022-11-21T03:58:34;4.10;99.90
790;DHT22;378;48.844;9.156;2022-11-21T04:01:01;4.20;99.90
790;DHT22;378;48.844;9.156;2022-11-21T04:03:27;4.20;99.90
790;DHT22;378;48.844;9.156;2022-11-21T04:05:54;4.20;99.90
790;DHT22;378;48.844;9.156;2022-11-21T04:08:21;4.30;99.90
790;DHT22;378;48.844;9.156;2022-11-21T04:10:50;4.30;99.90
790;DHT22;378;48.844;9.156;2022-11-21T04:13:17;4.40;99.90
790;DHT22;378;48.844;9.156;2022-11-21T04:15:44;4.40;99.90
790;DHT22;378;48.844;9.156;2022-11-21T04:18:12;4.40;99.90
790;DHT22;378;48.844;9.156;2022-11-21T04:20:39;4.50;99.90
790;DHT22;378;48.844;9.156;2022-11-21T04:23:06;4.50;99.90
790;DHT22;378;48.844;9.156;2022-11-21T04:25:33;4.40;99.90
790;DHT22;378;48.844;9.156;2022-11-21T04:28:03;4.50;99.90
790;DHT22;378;48.844;9.156;2022-11-21T04:30:31;4.50;99.90
790;DHT22;378;48.844;9.156;2022-11-21T04:32:58;4.50;99.90
790;DHT22;378;48.844;9.156;2022-11-21T04:35:25;4.60;99.90
790;DHT22;378;48.844;9.156;2022-11-21T04:37:52;4.60;99.90
790;DHT22;378;48.844;9.156;2022-11-21T04:40:19;4.60;99.90
790;DHT22;378;48.844;9.156;2022-11-21T04:42:47;4.60;99.90
790;DHT22;378;48.844;9.156;2022-11-21T04:45:15;4.60;99.90
790;DHT22;378;48.844;9.156;2022-11-21T04:47:44;4.60;99.90
790;DHT22;378;48.844;9.156;2022-11-21T04:50:13;4.60;99.90
790;DHT22;378;48.844;9.156;2022-11-21T04:52:40;4.60;99.90
790;DHT22;378;48.844;9.156;2022-11-21T04:55:08;4.60;99.90
790;DHT22;378;48.844;9.156;2022-11-21T04:57:35;4.70;99.90
790;DHT22;378;48.844;9.156;2022-11-21T05:00:03;4.60;99.90
790;DHT22;378;48.844;9.156;2022-11-21T05:02:31;4.70;99.90
790;DHT22;378;48.844;9.156;2022-11-21T05:04:59;4.70;99.90
790;DHT22;378;48.844;9.156;2022-11-21T05:07:25;4.70;99.90
790;DHT22;378;48.844;9.156;2022-11-21T05:09:52;4.60;99.90
790;DHT22;378;48.844;9.156;2022-11-21T05:12:19;4.70;99.90
790;DHT22;378;48.844;9.156;2022-11-21T05:15:04;4.70;99.90
790;DHT22;378;48.844;9.156;2022-11-21T05:17:32;4.70;99.90
790;DHT22;378;48.844;9.156;2022-11-21T05:19:59;4.80;99.90
790;DHT22;378;48.844;9.156;2022-11-21T05:22:26;4.80;99.90
790;DHT22;378;48.844;9.156;2022-11-21T05:24:52;4.80;99.90
790;DHT22;378;48.844;9.156;2022-11-21T05:27:19;4.80;99.90
790;DHT22;378;48.844;9.156;2022-11-21T05:29:46;4.90;99.90
790;DHT22;378;48.844;9.156;2022-11-21T05:32:13;4.90;99.90
790;DHT22;378;48.844;9.156;2022-11-21T05:34:41;4.90;99.90
790;DHT22;378;48.844;9.156;2022-11-21T05:37:08;4.80;99.90
790;DHT22;378;48.844;9.156;2022-11-21T05:39:35;4.90;99.90
790;DHT22;378;48.844;9.156;2022-11-21T05:42:01;4.90;99.90
790;DHT22;378;48.844;9.156;2022-11-21T05:44:28;4.90;99.90
790;DHT22;378;48.844;9.156;2022-11-21T05:46:54;5.00;99.90
790;DHT22;378;48.844;9.156;2022-11-21T05:49:21;5.10;99.90
790;DHT22;378;48.844;9.156;2022-11-21T05:51:49;5.10;99.90
790;DHT22;378;48.844;9.156;2022-11-21T05:54:16;5.10;99.90
790;DHT22;378;48.844;9.156;2022-11-21T05:56:43;5.00;99.90
790;DHT22;378;48.844;9.156;2022-11-21T05:59:10;5.00;99.90
790;DHT22;378;48.844;9.156;2022-11-21T06:01:37;5.00;99.90
790;DHT22;378;48.844;9.156;2022-11-21T06:04:21;4.90;99.90
790;DHT22;378;48.844;9.156;2022-11-21T06:06:49;5.00;99.90
790;DHT22;378;48.844;9.156;2022-11-21T06:09:16;5.00;99.90
790;DHT22;378;48.844;9.156;2022-11-21T06:11:43;4.90;99.90
790;DHT22;378;48.844;9.156;2022-11-21T06:14:10;4.90;99.90
790;DHT22;378;48.844;9.156;2022-11-21T06:16:36;4.90;99.90
790;DHT22;378;48.844;9.156;2022-11-21T06:19:03;4.90;99.90
790;DHT22;378;48.844;9.156;2022-11-21T06:21:30;4.90;99.90
790;DHT22;378;48.844;9.156;2022-11-21T06:24:00;4.90;99.90
790;DHT22;378;48.844;9.156;2022-11-21T06:26:27;4.90;99.90
790;DHT22;378;48.844;9.156;2022-11-21T06:28:54;5.00;99.90
790;DHT22;378;48.844;9.156;2022-11-21T06:31:22;5.00;99.90
790;DHT22;378;48.844;9.156;2022-11-21T06:33:51;5.00;99.90
790;DHT22;378;48.844;9.156;2022-11-21T06:36:18;5.10;99.90
790;DHT22;378;48.844;9.156;2022-11-21T06:38:45;5.10;99.90
790;DHT22;378;48.844;9.156;2022-11-21T06:41:15;5.10;99.90
790;DHT22;378;48.844;9.156;2022-11-21T06:43:42;5.10;99.90
790;DHT22;378;48.844;9.156;2022-11-21T06:46:09;5.20;99.90
790;DHT22;378;48.844;9.156;2022-11-21T06:48:37;5.10;99.90
790;DHT22;378;48.844;9.156;2022-11-21T06:51:05;5.10;99.90
790;DHT22;378;48.844;9.156;2022-11-21T06:53:32;5.00;99.90
790;DHT22;378;48.844;9.156;2022-11-21T06:55:59;4.90;99.90
790;DHT22;378;48.844;9.156;2022-11-21T06:58:28;5.00;99.90
790;DHT22;378;48.844;9.156;2022-11-21T07:00:55;4.90;99.90
790;DHT22;378;48.844;9.156;2022-11-21T07:03:22;4.90;99.90
790;DHT22;378;48.844;9.156;2022-11-21T07:05:49;4.90;99.90
790;DHT22;378;48.844;9.156;2022-11-21T07:08:17;4.80;99.90
790;DHT22;378;48.844;9.156;2022-11-21T07:10:44;4.80;99.90
790;DHT22;378;48.844;9.156;2022-11-21T07:13:10;4.70;99.90
790;DHT22;378;48.844;9.156;2022-11-21T07:15:52;4.80;99.90
790;DHT22;378;48.844;9.156;2022-11-21T07:18:20;4.80;99.90
790;DHT22;378;48.844;9.156;2022-11-21T07:20:47;4.80;99.90
790;DHT22;378;48.844;9.156;2022-11-21T07:23:14;4.90;99.90
790;DHT22;378;48.844;9.156;2022-11-21T07:25:41;5.10;99.90
790;DHT22;378;48.844;9.156;2022-11-21T07:28:09;5.20;99.90
790;DHT22;378;48.844;9.156;2022-11-21T07:30:36;5.10;99.90
790;DHT22;378;48.844;9.156;2022-11-21T07:33:06;5.20;99.90
790;DHT22;378;48.844;9.156;2022-11-21T07:35:34;5.10;99.90
790;DHT22;378;48.844;9.156;2022-11-21T07:38:01;5.10;99.90
790;DHT22;378;48.844;9.156;2022-11-21T07:40:28;5.00;99.90
790;DHT22;378;48.844;9.156;2022-11-21T07:43:00;4.90;99.90
790;DHT22;378;48.844;9.156;2022-11-21T07:45:27;4.90;99.90
790;DHT22;378;48.844;9.156;2022-11-21T07:47:57;4.90;99.90
790;DHT22;378;48.844;9.156;2022-11-21T07:50:26;5.10;99.90
790;DHT22;378;48.844;9.156;2022-11-21T07:52:56;5.10;99.90
790;DHT22;378;48.844;9.156;2022-11-21T07:55:23;5.20;99.90
790;DHT22;378;48.844;9.156;2022-11-21T07:57:57;5.80;99.90
790;DHT22;378;48.844;9.156;2022-11-21T08:00:24;6.70;99.90
790;DHT22;378;48.844;9.156;2022-11-21T08:02:51;7.60;99.90
790;DHT22;378;48.844;9.156;2022-11-21T08:05:18;8.70;99.90
790;DHT22;378;48.844;9.156;2022-11-21T08:07:46;9.80;99.90
790;DHT22;378;48.844;9.156;2022-11-21T08:10:13;10.20;99.90
790;DHT22;378;48.844;9.156;2022-11-21T08:12:40;10.80;99.90
790;DHT22;378;48.844;9.156;2022-11-21T08:15:08;11.50;99.90
790;DHT22;378;48.844;9.156;2022-11-21T08:17:35;12.50;99.90
790;DHT22;378;48.844;9.156;2022-11-21T08:20:03;13.60;99.90
790;DHT22;378;48.844;9.156;2022-11-21T08:22:30;14.10;99.90
790;DHT22;378;48.844;9.156;2022-11-21T08:24:58;14.40;99.90
790;DHT22;378;48.844;9.156;2022-11-21T08:27:26;14.30;99.90
790;DHT22;378;48.844;9.156;2022-11-21T08:29:53;14.20;99.90
790;DHT22;378;48.844;9.156;2022-11-21T08:32:20;13.90;99.90
790;DHT22;378;48.844;9.156;2022-11-21T08:34:47;13.80;99.90
790;DHT22;378;48.844;9.156;2022-11-21T08:37:14;14.30;99.90
790;DHT22;378;48.844;9.156;2022-11-21T08:39:40;14.00;99.90
790;DHT22;378;48.844;9.156;2022-11-21T08:42:10;13.70;99.90
790;DHT22;378;48.844;9.156;2022-11-21T08:44:37;13.00;99.90
790;DHT22;378;48.844;9.156;2022-11-21T08:47:04;13.40;99.90
790;DHT22;378;48.844;9.156;2022-11-21T08:49:31;13.50;99.90
790;DHT22;378;48.844;9.156;2022-11-21T08:51:57;14.30;99.90
790;DHT22;378;48.844;9.156;2022-11-21T08:54:24;14.50;99.90
790;DHT22;378;48.844;9.156;2022-11-21T08:56:52;14.10;99.90
790;DHT22;378;48.844;9.156;2022-11-21T08:59:20;14.20;99.90
790;DHT22;378;48.844;9.156;2022-11-21T09:01:47;14.70;99.90
790;DHT22;378;48.844;9.156;2022-11-21T09:04:14;14.50;99.90
790;DHT22;378;48.844;9.156;2022-11-21T09:06:40;14.40;99.90
790;DHT22;378;48.844;9.156;2022-11-21T09:09:07;14.30;99.90
790;DHT22;378;48.844;9.156;2022-11-21T09:11:34;14.00;99.90
790;DHT22;378;48.844;9.156;2022-11-21T09:14:02;14.10;99.90
790;DHT22;378;48.844;9.156;2022-11-21T09:16:48;14.70;99.90
790;DHT22;378;48.844;9.156;2022-11-21T09:19:32;15.30;99.90
790;DHT22;378;48.844;9.156;2022-11-21T09:21:59;15.30;99.90
790;DHT22;378;48.844;9.156;2022-11-21T09:24:26;15.00;99.90
790;DHT22;378;48.844;9.156;2022-11-21T09:26:53;14.00;99.90
790;DHT22;378;48.844;9.156;2022-11-21T09:29:19;13.90;99.90
790;DHT22;378;48.844;9.156;2022-11-21T09:31:48;13.80;99.90
790;DHT22;378;48.844;9.156;2022-11-21T09:34:14;13.80;99.90
790;DHT22;378;48.844;9.156;2022-11-21T09:36:41;13.50;99.90
790;DHT22;378;48.844;9.156;2022-11-21T09:39:08;13.00;99.90
790;DHT22;378;48.844;9.156;2022-11-21T09:41:40;12.10;99.90
790;DHT22;378;48.844;9.156;2022-11-21T09:44:32;11.50;99.90
790;DHT22;378;48.844;9.156;2022-11-21T09:47:11;11.00;99.90
790;DHT22;378;48.844;9.156;2022-11-21T09:49:46;10.90;99.90
790;DHT22;378;48.844;9.156;2022-11-21T09:52:15;10.90;99.90
790;DHT22;378;48.844;9.156;2022-11-21T09:54:47;10.70;99.90
790;DHT22;378;48.844;9.156;2022-11-21T09:57:17;10.70;99.90
790;DHT22;378;48.844;9.156;2022-11-21T09:59:47;10.50;99.90
790;DHT22;378;48.844;9.156;2022-11-21T10:02:17;10.40;99.90
790;DHT22;378;48.844;9.156;2022-11-21T10:04:45;10.80;99.90
790;DHT22;378;48.844;9.156;2022-11-21T10:07:16;11.20;99.90
790;DHT22;378;48.844;9.156;2022-11-21T10:09:56;11.00;99.90
790;DHT22;378;48.844;9.156;2022-11-21T10:12:31;10.80;99.90
790;DHT22;378;48.844;9.156;2022-11-21T10:15:23;11.00;99.90
790;DHT22;378;48.844;9.156;2022-11-21T10:18:06;10.80;99.90
790;DHT22;378;48.844;9.156;2022-11-21T10:20:48;10.70;99.90
790;DHT22;378;48.844;9.156;2022-11-21T10:23:32;10.80;99.90
790;DHT22;378;48.844;9.156;2022-11-21T10:26:13;10.60;99.90
790;DHT22;378;48.844;9.156;2022-11-21T10:28:45;10.30;99.90
790;DHT22;378;48.844;9.156;2022-11-21T10:31:14;10.30;99.90
790;DHT22;378;48.844;9.156;2022-11-21T10:33:44;10.10;99.90
790;DHT22;378;48.844;9.156;2022-11-21T10:36:18;10.20;99.90
790;DHT22;378;48.844;9.156;2022-11-21T10:38:49;10.60;99.90
790;DHT22;378;48.844;9.156;2022-11-21T10:41:23;10.90;99.90
790;DHT22;378;48.844;9.156;2022-11-21T10:43:58;11.10;99.90
790;DHT22;378;48.844;9.156;2022-11-21T10:46:53;10.90;99.90
790;DHT22;378;48.844;9.156;2022-11-21T10:49:23;11.00;99.90
790;DHT22;378;48.844;9.156;2022-11-21T10:51:56;10.80;99.90
790;DHT22;378;48.844;9.156;2022-11-21T10:54:25;10.70;99.90
790;DHT22;378;48.844;9.156;2022-11-21T10:57:00;10.50;99.90
790;DHT22;378;48.844;9.156;2022-11-21T10:59:31;10.30;99.90
790;DHT22;378;48.844;9.156;2022-11-21T11:01:59;10.00;99.90
790;DHT22;378;48.844;9.156;2022-11-21T11:04:29;9.50;99.90
790;DHT22;378;48.844;9.156;2022-11-21T11:06:56;9.20;99.90
790;DHT22;378;48.844;9.156;2022-11-21T11:09:27;9.00;99.90
790;DHT22;378;48.844;9.156;2022-11-21T11:12:26;8.80;99.90
790;DHT22;378;48.844;9.156;2022-11-21T11:15:16;8.90;99.90
790;DHT22;378;48.844;9.156;2022-11-21T11:17:48;9.10;99.90
790;DHT22;378;48.844;9.156;2022-11-21T11:20:31;9.20;99.90
790;DHT22;378;48.844;9.156;2022-11-21T11:22:58;9.40;99.90
790;DHT22;378;48.844;9.156;2022-11-21T11:25:25;9.70;99.90
790;DHT22;378;48.844;9.156;2022-11-21T11:27:52;9.90;99.90
790;DHT22;378;48.844;9.156;2022-11-21T11:30:20;10.20;99.90
790;DHT22;378;48.844;9.156;2022-11-21T11:32:47;10.60;99.90
790;DHT22;378;48.844;9.156;2022-11-21T11:35:21;10.50;99.90
790;DHT22;378;48.844;9.156;2022-11-21T11:37:57;10.50;99.90
790;DHT22;378;48.844;9.156;2022-11-21T11:40:28;10.50;99.90
790;DHT22;378;48.844;9.156;2022-11-21T11:43:07;10.50;99.90
790;DHT22;378;48.844;9.156;2022-11-21T11:46:18;10.60;99.90
790;DHT22;378;48.844;9.156;2022-11-21T11:49:15;10.50;99.90
790;DHT22;378;48.844;9.156;2022-11-21T11:51:46;10.60;99.90
790;DHT22;378;48.844;9.156;2022-11-21T11:54:19;10.60;99.90
790;DHT22;378;48.844;9.156;2022-11-21T11:56:47;10.50;99.90
790;DHT22;378;48.844;9.156;2022-11-21T11:59:19;10.30;99.90
790;DHT22;378;48.844;9.156;2022-11-21T12:01:50;10.40;99.90
790;DHT22;378;48.844;9.156;2022-11-21T12:04:19;10.30;99.90
790;DHT22;378;48.844;9.156;2022-11-21T12:06:50;10.10;99.90
790;DHT22;378;48.844;9.156;2022-11-21T12:09:26;10.00;99.90
790;DHT22;378;48.844;9.156;2022-11-21T12:11:58;9.80;99.90
790;DHT22;378;48.844;9.156;2022-11-21T12:14:55;9.50;99.90
790;DHT22;378;48.844;9.156;2022-11-21T12:17:44;9.40;99.90
790;DHT22;378;48.844;9.156;2022-11-21T12:20:18;9.40;99.90
790;DHT22;378;48.844;9.156;2022-11-21T12:22:48;9.50;99.90
790;DHT22;378;48.844;9.156;2022-11-21T12:25:18;9.60;99.90
790;DHT22;378;48.844;9.156;2022-11-21T12:27:51;9.70;99.90
790;DHT22;378;48.844;9.156;2022-11-21T12:30:36;9.80;99.90
790;DHT22;378;48.844;9.156;2022-11-21T12:33:10;9.90;99.90
790;DHT22;378;48.844;9.156;2022-11-21T12:36:03;10.00;99.90
790;DHT22;378;48.844;9.156;2022-11-21T12:38:48;9.90;99.90
790;DHT22;378;48.844;9.156;2022-11-21T12:41:27;9.90;99.90
790;DHT22;378;48.844;9.156;2022-11-21T12:44:23;9.90;99.90
790;DHT22;378;48.844;9.156;2022-11-21T12:47:04;9.80;99.90
790;DHT22;378;48.844;9.156;2022-11-21T12:49:41;9.90;99.90
790;DHT22;378;48.844;9.156;2022-11-21T12:52:30;10.10;99.90
790;DHT22;378;48.844;9.156;2022-11-21T12:55:21;10.30;99.90
790;DHT22;378;48.844;9.156;2022-11-21T12:58:12;10.30;99.90
790;DHT22;378;48.844;9.156;2022-11-21T13:01:07;10.20;99.90
790;DHT22;378;48.844;9.156;2022-11-21T13:03:46;10.30;99.90
790;DHT22;378;48.844;9.156;2022-11-21T13:06:17;10.50;99.90
790;DHT22;378;48.844;9.156;2022-11-21T13:08:46;10.50;99.90
790;DHT22;378;48.844;9.156;2022-11-21T13:11:20;10.50;99.90
790;DHT22;378;48.844;9.156;2022-11-21T13:14:14;10.70;99.90
790;DHT22;378;48.844;9.156;2022-11-21T13:16:46;10.60;99.90
790;DHT22;378;48.844;9.156;2022-11-21T13:19:23;10.60;99.90
790;DHT22;378;48.844;9.156;2022-11-21T13:21:52;10.60;99.90
790;DHT22;378;48.844;9.156;2022-11-21T13:24:54;10.50;99.90
790;DHT22;378;48.844;9.156;2022-11-21T13:27:27;10.50;99.90
790;DHT22;378;48.844;9.156;2022-11-21T13:30:17;10.40;99.90
790;DHT22;378;48.844;9.156;2022-11-21T13:32:47;10.40;99.90
790;DHT22;378;48.844;9.156;2022-11-21T13:38:31;10.50;99.90
790;DHT22;378;48.844;9.156;2022-11-21T13:40:58;10.50;99.90
790;DHT22;378;48.844;9.156;2022-11-21T13:43:42;10.60;99.90
790;DHT22;378;48.844;9.156;2022-11-21T13:49:18;11.00;99.90
790;DHT22;378;48.844;9.156;2022-11-21T13:51:51;11.00;99.90
790;DHT22;378;48.844;9.156;2022-11-21T13:54:32;11.00;99.90
790;DHT22;378;48.844;9.156;2022-11-21T13:57:18;10.90;99.90
790;DHT22;378;48.844;9.156;2022-11-21T14:00:02;10.70;99.90
790;DHT22;378;48.844;9.156;2022-11-21T14:03:09;10.60;99.90
790;DHT22;378;48.844;9.156;2022-11-21T14:06:08;10.30;99.90
790;DHT22;378;48.844;9.156;2022-11-21T14:08:40;10.10;99.90
790;DHT22;378;48.844;9.156;2022-11-21T14:11:28;10.00;99.90
790;DHT22;378;48.844;9.156;2022-11-21T14:13:58;9.90;99.90
790;DHT22;378;48.844;9.156;2022-11-21T14:16:30;9.80;99.90
790;DHT22;378;48.844;9.156;2022-11-21T14:19:02;9.80;99.90
790;DHT22;378;48.844;9.156;2022-11-21T14:21:31;9.80;99.90
790;DHT22;378;48.844;9.156;2022-11-21T14:24:01;9.80;99.90
790;DHT22;378;48.844;9.156;2022-11-21T14:26:32;9.70;99.90
790;DHT22;378;48.844;9.156;2022-11-21T14:29:16;9.60;99.90
790;DHT22;378;48.844;9.156;2022-11-21T14:31:46;9.50;99.90
790;DHT22;378;48.844;9.156;2022-11-21T14:34:23;9.40;99.90
790;DHT22;378;48.844;9.156;2022-11-21T14:36:50;9.40;99.90
790;DHT22;378;48.844;9.156;2022-11-21T14:39:26;9.30;99.90
790;DHT22;378;48.844;9.156;2022-11-21T14:41:54;9.30;99.90
790;DHT22;378;48.844;9.156;2022-11-21T14:44:22;9.20;99.90
790;DHT22;378;48.844;9.156;2022-11-21T14:46:50;9.20;99.90
790;DHT22;378;48.844;9.156;2022-11-21T14:49:26;9.20;99.90
790;DHT22;378;48.844;9.156;2022-11-21T14:52:01;9.10;99.90
790;DHT22;378;48.844;9.156;2022-11-21T14:54:31;9.00;99.90
790;DHT22;378;48.844;9.156;2022-11-21T14:57:00;8.90;99.90
790;DHT22;378;48.844;9.156;2022-11-21T14:59:30;8.80;99.90
790;DHT22;378;48.844;9.156;2022-11-21T15:02:00;8.70;99.90
790;DHT22;378;48.844;9.156;2022-11-21T15:04:31;8.60;99.90
790;DHT22;378;48.844;9.156;2022-11-21T15:06:59;8.50;99.90
790;DHT22;378;48.844;9.156;2022-11-21T15:09:26;8.40;99.90
790;DHT22;378;48.844;9.156;2022-11-21T15:11:58;8.40;99.90
790;DHT22;378;48.844;9.156;2022-11-21T15:14:30;8.30;99.90
790;DHT22;378;48.844;9.156;2022-11-21T15:16:59;8.30;99.90
790;DHT22;378;48.844;9.156;2022-11-21T15:19:30;8.30;99.90
790;DHT22;378;48.844;9.156;2022-11-21T15:21:59;8.30;99.90
790;DHT22;378;48.844;9.156;2022-11-21T15:24:29;8.20;99.90
790;DHT22;378;48.844;9.156;2022-11-21T15:26:57;8.10;99.90
790;DHT22;378;48.844;9.156;2022-11-21T15:29:24;8.00;99.90
790;DHT22;378;48.844;9.156;2022-11-21T15:32:06;7.90;99.90
790;DHT22;378;48.844;9.156;2022-11-21T15:34:34;7.90;99.90
790;DHT22;378;48.844;9.156;2022-11-21T15:37:03;7.80;99.90
790;DHT22;378;48.844;9.156;2022-11-21T15:39:33;7.70;99.90
790;DHT22;378;48.844;9.156;2022-11-21T15:42:33;7.60;99.90
790;DHT22;378;48.844;9.156;2022-11-21T15:45:02;7.60;99.90
790;DHT22;378;48.844;9.156;2022-11-21T15:47:29;7.50;99.90
790;DHT22;378;48.844;9.156;2022-11-21T15:49:58;7.40;99.90
790;DHT22;378;48.844;9.156;2022-11-21T15:52:24;7.30;99.90
790;DHT22;378;48.844;9.156;2022-11-21T15:54:51;7.20;99.90
790;DHT22;378;48.844;9.156;2022-11-21T15:57:18;7.10;99.90
790;DHT22;378;48.844;9.156;2022-11-21T15:59:46;7.00;99.90
790;DHT22;378;48.844;9.156;2022-11-21T16:02:13;7.00;99.90
790;DHT22;378;48.844;9.156;2022-11-21T16:04:40;6.90;99.90
790;DHT22;378;48.844;9.156;2022-11-21T16:07:08;6.80;99.90
790;DHT22;378;48.844;9.156;2022-11-21T16:09:35;6.80;99.90
790;DHT22;378;48.844;9.156;2022-11-21T16:12:03;6.70;99.90
790;DHT22;378;48.844;9.156;2022-11-21T16:14:30;6.60;99.90
790;DHT22;378;48.844;9.156;2022-11-21T16:16:57;6.50;99.90
790;DHT22;378;48.844;9.156;2022-11-21T16:19:23;6.30;99.90
790;DHT22;378;48.844;9.156;2022-11-21T16:21:50;6.20;99.90
790;DHT22;378;48.844;9.156;2022-11-21T16:24:18;6.10;99.90
790;DHT22;378;48.844;9.156;2022-11-21T16:26:45;5.90;99.90
790;DHT22;378;48.844;9.156;2022-11-21T16:29:13;5.80;99.90
790;DHT22;378;48.844;9.156;2022-11-21T16:31:40;5.80;99.90
790;DHT22;378;48.844;9.156;2022-11-21T16:34:07;5.80;99.90
790;DHT22;378;48.844;9.156;2022-11-21T16:36:34;5.80;99.90
790;DHT22;378;48.844;9.156;2022-11-21T16:39:00;5.70;99.90
790;DHT22;378;48.844;9.156;2022-11-21T16:41:29;5.80;99.90
790;DHT22;378;48.844;9.156;2022-11-21T16:43:56;5.80;99.90
790;DHT22;378;48.844;9.156;2022-11-21T16:46:23;5.80;99.90
790;DHT22;378;48.844;9.156;2022-11-21T16:48:57;5.60;99.90
790;DHT22;378;48.844;9.156;2022-11-21T16:51:24;5.50;99.90
790;DHT22;378;48.844;9.156;2022-11-21T16:53:51;5.50;99.90
790;DHT22;378;48.844;9.156;2022-11-21T16:56:18;5.50;99.90
790;DHT22;378;48.844;9.156;2022-11-21T16:58:47;5.50;99.90
790;DHT22;378;48.844;9.156;2022-11-21T17:01:15;5.50;99.90
790;DHT22;378;48.844;9.156;2022-11-21T17:03:44;5.50;99.90
790;DHT22;378;48.844;9.156;2022-11-21T17:06:14;5.50;99.90
790;DHT22;378;48.844;9.156;2022-11-21T17:08:41;5.40;99.90
790;DHT22;378;48.844;9.156;2022-11-21T17:11:12;5.40;99.90
790;DHT22;378;48.844;9.156;2022-11-21T17:13:39;5.40;99.90
790;DHT22;378;48.844;9.156;2022-11-21T17:16:09;5.40;99.90